Time;durP1;ratioP1;P1;durP2;ratioP2;P2;SDS_P1;SDS_P2;PMS_P1;PMS_P2;Temp;Humidity;BMP_temperature;BMP_pressure;BME280_temperature;BME280_humidity;BME280_pressure;Samples;Min_cycle;Max_cycle;Signal;HPM_P1;HPM_P2
2022/09/11 00:00:59;;;;;;;8.60;4.03;;;;;;;20.48;100.00;101253.75;2088204;28;20195;-65
2022/09/11 00:01:59;;;;;;;5.80;4.60;;;;;;;20.49;100.00;101246.06;2086174;28;20688;-65
2022/09/11 00:03:00;;;;;;;4.33;3.80;;;;;;;20.51;100.00;101244.31;2078231;28;20276;-65
2022/09/11 00:04:01;;;;;;;5.10;4.30;;;;;;;20.58;100.00;101258.00;2087323;28;20172;-65
2022/09/11 00:05:02;;;;;;;7.60;4.20;;;;;;;20.57;100.00;101245.19;2088542;28;20181;-64
2022/09/11 00:06:05;;;;;;;8.10;4.17;;;;;;;20.33;100.00;101201.50;2088022;28;20414;-64
2022/09/11 00:07:06;;;;;;;9.40;4.53;;;;;;;20.61;100.00;101253.44;2088637;28;20201;-64
2022/09/11 00:08:07;;;;;;;6.37;3.90;;;;;;;20.01;100.00;101158.19;2087822;28;20957;-65
2022/09/11 00:09:07;;;;;;;6.80;4.20;;;;;;;20.52;100.00;101243.03;2087952;28;20186;-64
2022/09/11 00:10:09;;;;;;;8.90;4.13;;;;;;;20.50;100.00;101242.78;2087806;28;20763;-65
2022/09/11 00:11:16;;;;;;;9.63;4.10;;;;;;;20.44;100.00;101232.66;2088468;28;20192;-65
2022/09/11 00:13:37;;;;;;;6.20;3.87;;;;;;;20.45;100.00;101246.25;2088526;28;20419;-65
2022/09/11 00:14:39;;;;;;;7.73;4.60;;;;;;;20.29;100.00;101232.66;2088558;28;20934;-64
2022/09/11 00:15:42;;;;;;;4.67;3.87;;;;;;;20.39;100.00;101239.75;2087902;28;20447;-64
2022/09/11 00:16:46;;;;;;;5.77;3.87;;;;;;;20.44;100.00;101238.28;2087219;28;20498;-64
2022/09/11 00:17:46;;;;;;;4.97;3.60;;;;;;;20.47;100.00;101249.34;2087996;28;20431;-65
2022/09/11 00:18:50;;;;;;;8.93;4.17;;;;;;;20.45;100.00;101239.84;2087923;28;20442;-64
2022/09/11 00:19:51;;;;;;;6.00;4.00;;;;;;;20.35;100.00;101213.84;2088711;28;20263;-65
2022/09/11 00:20:53;;;;;;;5.87;4.00;;;;;;;20.38;100.00;101243.84;2088869;28;20488;-64
2022/09/11 00:21:56;;;;;;;5.70;4.17;;;;;;;20.43;100.00;101239.56;2088366;28;20196;-64
2022/09/11 00:22:57;;;;;;;6.60;4.30;;;;;;;20.45;100.00;101234.22;2087899;28;20442;-64
2022/09/11 00:23:58;;;;;;;7.07;4.27;;;;;;;20.36;100.00;101239.97;2088090;28;21024;-65
2022/09/11 00:24:58;;;;;;;7.13;4.10;;;;;;;19.69;100.00;101147.09;2088489;28;20875;-65
2022/09/11 00:26:02;;;;;;;7.63;4.00;;;;;;;20.34;100.00;101243.25;2087251;28;20188;-65
2022/09/11 00:27:03;;;;;;;4.53;3.30;;;;;;;20.33;100.00;101240.91;2088404;28;20187;-65
2022/09/11 00:28:03;;;;;;;5.37;3.43;;;;;;;20.25;100.00;101239.72;2087744;28;20486;-64
2022/09/11 00:29:04;;;;;;;5.83;3.90;;;;;;;20.22;100.00;101235.84;2089151;28;20266;-64
2022/09/11 00:30:04;;;;;;;4.40;3.87;;;;;;;20.25;100.00;101243.34;2088401;28;20183;-64
2022/09/11 00:31:11;;;;;;;5.77;3.73;;;;;;;20.21;100.00;101239.19;2087729;28;20674;-64
2022/09/11 00:32:11;;;;;;;6.33;3.83;;;;;;;20.16;100.00;101234.22;2087260;28;20196;-64
2022/09/11 00:33:13;;;;;;;8.57;4.03;;;;;;;20.20;100.00;101237.59;2087856;28;20437;-64
2022/09/11 00:34:14;;;;;;;5.13;3.80;;;;;;;20.14;100.00;101247.97;2087698;28;20190;-64
2022/09/11 00:35:14;;;;;;;9.97;4.00;;;;;;;20.09;100.00;101243.03;2088223;28;20445;-64
2022/09/11 00:36:20;;;;;;;7.33;3.80;;;;;;;20.04;100.00;101244.44;2087066;28;20341;-64
2022/09/11 00:37:21;;;;;;;7.73;4.20;;;;;;;20.05;100.00;101248.06;2087672;28;20180;-64
2022/09/11 00:38:21;;;;;;;7.87;4.10;;;;;;;20.04;100.00;101247.25;2087965;28;20419;-65
2022/09/11 00:39:22;;;;;;;8.77;3.90;;;;;;;20.02;100.00;101244.16;2088974;28;20685;-65
2022/09/11 00:40:24;;;;;;;6.77;3.90;;;;;;;20.01;100.00;101244.63;2087810;28;20242;-65
2022/09/11 00:41:37;;;;;;;6.63;4.00;;;;;;;20.01;100.00;101248.22;2088138;28;20196;-65
2022/09/11 00:42:37;;;;;;;5.77;3.90;;;;;;;19.69;100.00;101201.31;2087950;28;20532;-65
2022/09/11 00:44:04;;;;;;;8.40;4.20;;;;;;;19.96;100.00;101246.06;2087508;28;20439;-64
2022/09/11 00:45:07;;;;;;;7.10;3.50;;;;;;;19.48;100.00;101177.09;2096275;28;20274;-64
2022/09/11 00:46:08;;;;;;;8.53;4.10;;;;;;;19.91;100.00;101246.72;2094077;28;20567;-65
2022/09/11 00:47:13;;;;;;;12.40;3.90;;;;;;;19.90;100.00;101245.19;2087100;28;20438;-64
2022/09/11 00:48:19;;;;;;;5.50;4.00;;;;;;;19.90;100.00;101250.81;2087696;28;20195;-65
2022/09/11 00:49:34;;;;;;;5.57;3.90;;;;;;;19.89;100.00;101254.09;2088322;28;20907;-64
2022/09/11 00:50:35;;;;;;;7.73;4.07;;;;;;;19.86;100.00;101257.88;2087978;28;20809;-64
2022/09/11 00:51:36;;;;;;;7.07;4.10;;;;;;;19.82;100.00;101249.66;2087925;28;20504;-64
2022/09/11 00:52:44;;;;;;;7.97;4.13;;;;;;;19.78;100.00;101257.47;2087672;28;20230;-65
2022/09/11 00:53:46;;;;;;;6.40;4.00;;;;;;;19.80;100.00;101257.00;2087206;28;20447;-65
2022/09/11 00:54:58;;;;;;;6.67;4.20;;;;;;;19.64;100.00;101232.91;2088220;28;20501;-65
2022/09/11 00:56:02;;;;;;;8.47;4.10;;;;;;;19.77;100.00;101255.94;2087320;28;20477;-64
2022/09/11 00:57:06;;;;;;;6.83;4.57;;;;;;;19.83;100.00;101253.22;2087951;28;20435;-64
2022/09/11 00:58:14;;;;;;;6.50;4.20;;;;;;;19.80;100.00;101257.00;2087862;28;20429;-65
2022/09/11 00:59:15;;;;;;;6.40;4.20;;;;;;;18.94;100.00;101112.81;2088229;28;20427;-64
2022/09/11 01:00:16;;;;;;;7.57;4.43;;;;;;;19.82;100.00;101249.66;2087028;28;20431;-65
2022/09/11 01:01:17;;;;;;;7.60;3.70;;;;;;;19.46;100.00;101195.72;2087970;28;20450;-64
2022/09/11 01:02:21;;;;;;;7.57;4.07;;;;;;;19.78;100.00;101246.22;2087328;28;20270;-65
2022/09/11 01:03:23;;;;;;;5.87;3.90;;;;;;;19.77;100.00;101246.72;2087598;28;20188;-65
2022/09/11 01:04:24;;;;;;;6.00;3.70;;;;;;;19.78;100.00;101251.84;2087223;28;20481;-65
2022/09/11 01:05:27;;;;;;;7.43;4.00;;;;;;;19.78;100.00;101249.03;2087428;28;20438;-65
2022/09/11 01:06:28;;;;;;;7.43;4.07;;;;;;;19.81;100.00;101259.31;2087018;28;20442;-65
2022/09/11 01:07:30;;;;;;;6.47;3.90;;;;;;;19.77;100.00;101236.25;2087183;28;20482;-65
2022/09/11 01:08:30;;;;;;;6.57;4.10;;;;;;;19.86;100.00;101255.06;2088289;28;20176;-65
2022/09/11 01:09:32;;;;;;;9.53;4.43;;;;;;;19.85;100.00;101247.91;2086705;28;20426;-64
2022/09/11 01:10:47;;;;;;;7.00;3.90;;;;;;;19.86;100.00;101252.28;2087366;28;20195;-65
2022/09/11 01:12:14;;;;;;;4.70;3.73;;;;;;;19.85;100.00;101250.72;2087673;28;21019;-65
2022/09/11 01:13:23;;;;;;;8.27;4.30;;;;;;;19.83;100.00;101251.19;2078535;28;20446;-65
2022/09/11 01:14:56;;;;;;;9.63;4.20;;;;;;;19.80;100.00;101251.38;2086907;28;20455;-65
2022/09/11 01:16:18;;;;;;;7.47;4.20;;;;;;;19.79;100.00;101244.97;2085420;28;20576;-65
2022/09/11 01:17:55;;;;;;;7.67;4.23;;;;;;;19.79;100.00;101247.78;2087749;28;20417;-65
2022/09/11 01:19:17;;;;;;;9.80;4.93;;;;;;;19.77;100.00;101253.13;2088085;28;20495;-65
2022/09/11 01:20:53;;;;;;;9.07;3.90;;;;;;;19.75;100.00;101246.41;2087339;28;20828;-65
2022/09/11 01:22:14;;;;;;;6.63;3.80;;;;;;;19.72;100.00;101253.78;2078715;28;20833;-65
2022/09/11 01:23:33;;;;;;;6.67;3.93;;;;;;;19.68;100.00;101244.75;2077911;28;20455;-65
2022/09/11 01:24:52;;;;;;;8.63;3.93;;;;;;;19.66;100.00;101246.47;2085063;28;20462;-65
2022/09/11 01:26:37;;;;;;;7.63;4.20;;;;;;;19.63;100.00;101253.84;2086772;28;20965;-65
2022/09/11 01:27:49;;;;;;;6.60;4.40;;;;;;;19.36;100.00;101216.69;2082208;28;20433;-65
2022/09/11 01:29:04;;;;;;;5.47;4.03;;;;;;;19.51;100.00;101238.00;2088473;28;20426;-64
2022/09/11 01:30:33;;;;;;;8.17;3.80;;;;;;;19.57;100.00;101240.91;2086573;28;20426;-64
2022/09/11 01:31:41;;;;;;;7.37;3.63;;;;;;;19.56;100.00;101248.59;2081807;28;20454;-65
2022/09/11 01:33:10;;;;;;;5.27;3.97;;;;;;;19.52;100.00;101250.78;2087596;28;20947;-65
2022/09/11 01:34:41;;;;;;;6.63;3.90;;;;;;;19.53;100.00;101249.53;2087289;28;20928;-65
2022/09/11 01:36:02;;;;;;;4.83;3.77;;;;;;;19.55;100.00;101244.19;2088146;28;20421;-65
2022/09/11 01:37:08;;;;;;;6.30;3.70;;;;;;;19.49;100.00;101239.75;2086944;28;20415;-65
2022/09/11 01:38:22;;;;;;;5.87;3.60;;;;;;;19.50;100.00;101250.47;2086584;28;20449;-65
2022/09/11 01:39:32;;;;;;;8.90;4.00;;;;;;;19.46;100.00;101247.09;2087749;28;20539;-65
2022/09/11 01:40:44;;;;;;;10.37;4.20;;;;;;;19.47;100.00;101250.66;2087041;28;20422;-64
2022/09/11 01:42:01;;;;;;;7.87;3.70;;;;;;;19.47;100.00;101248.66;2087560;28;20472;-64
2022/09/11 01:43:12;;;;;;;5.37;4.00;;;;;;;19.45;100.00;101256.75;2087077;28;20438;-64
2022/09/11 01:44:26;;;;;;;4.80;3.80;;;;;;;19.40;100.00;101248.22;2086491;28;20455;-65
2022/09/11 01:45:30;;;;;;;4.93;4.10;;;;;;;19.36;100.00;101253.22;2086573;28;20447;-65
2022/09/11 01:46:36;;;;;;;5.80;4.07;;;;;;;19.37;100.00;101251.97;2087102;28;20522;-64
2022/09/11 01:47:39;;;;;;;5.50;3.70;;;;;;;19.42;100.00;101254.13;2087630;28;20424;-64
2022/09/11 01:48:46;;;;;;;7.20;4.30;;;;;;;19.40;100.00;101256.66;2087274;28;20432;-64
2022/09/11 01:50:01;;;;;;;5.87;4.30;;;;;;;19.41;100.00;101249.78;2087625;28;20793;-65
2022/09/11 01:51:04;;;;;;;5.00;4.23;;;;;;;19.42;100.00;101251.31;2087052;28;20459;-64
2022/09/11 01:52:11;;;;;;;5.93;4.27;;;;;;;19.40;100.00;101246.16;2087478;28;20517;-65
2022/09/11 01:53:16;;;;;;;7.43;3.97;;;;;;;19.42;100.00;101252.09;2086914;28;20424;-65
2022/09/11 01:54:21;;;;;;;6.77;4.17;;;;;;;19.46;100.00;101249.13;2087409;28;20524;-65
2022/09/11 01:55:33;;;;;;;6.13;4.23;;;;;;;19.46;100.00;101243.50;2087507;28;20521;-65
2022/09/11 01:56:40;;;;;;;7.17;4.70;;;;;;;19.12;100.00;101204.63;2085425;28;21060;-65
2022/09/11 01:58:02;;;;;;;5.30;4.10;;;;;;;19.39;100.00;101243.88;2086413;28;20476;-65
2022/09/11 01:59:06;;;;;;;10.60;4.53;;;;;;;19.13;100.00;101190.13;2087029;28;20421;-65
2022/09/11 02:00:10;;;;;;;6.83;4.50;;;;;;;19.40;100.00;101236.97;2086431;28;20419;-65
2022/09/11 02:01:17;;;;;;;8.20;4.80;;;;;;;18.74;100.00;101134.31;2086745;28;20430;-65
2022/09/11 02:02:23;;;;;;;7.87;4.30;;;;;;;19.44;100.00;101248.81;2087125;28;20428;-65
2022/09/11 02:03:30;;;;;;;11.27;4.47;;;;;;;19.42;100.00;101237.25;2087096;28;20895;-65
2022/09/11 02:04:36;;;;;;;5.07;4.03;;;;;;;19.40;100.00;101239.78;2086694;28;20431;-64
2022/09/11 02:05:45;;;;;;;5.70;4.70;;;;;;;19.40;100.00;101239.78;2087891;28;20417;-65
2022/09/11 02:07:12;;;;;;;7.10;4.57;;;;;;;19.35;100.00;101235.59;2087469;28;20415;-65
2022/09/11 02:08:18;;;;;;;6.47;4.93;;;;;;;19.38;100.00;101240.25;2086261;28;20446;-65
2022/09/11 02:09:23;;;;;;;6.57;4.83;;;;;;;19.40;100.00;101234.94;2088104;28;20429;-65
2022/09/11 02:10:50;;;;;;;7.60;4.40;;;;;;;19.37;100.00;101235.91;2087080;28;20467;-65
2022/09/11 02:11:54;;;;;;;6.67;4.87;;;;;;;19.39;100.00;101238.25;2087573;28;20756;-65
2022/09/11 02:13:09;;;;;;;7.90;4.70;;;;;;;19.47;100.00;101226.16;2085382;28;20434;-65
2022/09/11 02:14:36;;;;;;;6.87;4.63;;;;;;;19.42;100.00;101228.84;2087235;28;20474;-65
2022/09/11 02:15:48;;;;;;;8.83;4.93;;;;;;;19.38;100.00;101229.03;2087438;28;20453;-65
2022/09/11 02:17:30;;;;;;;6.47;4.90;;;;;;;19.28;100.00;101235.94;2087126;28;20860;-64
2022/09/11 02:18:49;;;;;;;7.70;4.90;;;;;;;19.19;100.00;101227.53;2077986;28;20506;-65
2022/09/11 02:19:52;;;;;;;10.27;5.20;;;;;;;19.26;100.00;101230.03;2078227;28;20415;-65
2022/09/11 02:20:53;;;;;;;6.83;4.90;;;;;;;19.27;100.00;101236.41;2082036;28;20433;-65
2022/09/11 02:21:56;;;;;;;6.70;5.17;;;;;;;19.17;100.00;101218.03;2086358;28;20414;-65
2022/09/11 02:22:57;;;;;;;7.47;4.90;;;;;;;19.26;100.00;101237.69;2087533;28;20271;-64
2022/09/11 02:23:59;;;;;;;5.37;4.70;;;;;;;18.77;100.00;101159.41;2087345;28;20437;-65
2022/09/11 02:25:01;;;;;;;6.47;4.93;;;;;;;19.34;100.00;101233.28;2087435;28;20280;-65
2022/09/11 02:26:05;;;;;;;8.40;5.07;;;;;;;19.37;100.00;101233.09;2086917;28;20452;-65
2022/09/11 02:27:19;;;;;;;5.53;4.60;;;;;;;19.16;100.00;101199.63;2087357;28;20491;-65
2022/09/11 02:28:20;;;;;;;6.40;5.00;;;;;;;19.37;100.00;101235.91;2086359;28;20480;-65
2022/09/11 02:29:20;;;;;;;5.47;4.90;;;;;;;19.40;100.00;101239.78;2086957;28;20502;-65
2022/09/11 02:30:21;;;;;;;8.80;4.70;;;;;;;19.39;100.00;101232.63;2086205;28;20191;-64
2022/09/11 02:31:22;;;;;;;6.10;4.57;;;;;;;19.38;100.00;101239.47;2086366;28;20184;-65
2022/09/11 02:32:25;;;;;;;6.70;4.57;;;;;;;19.26;100.00;101226.44;2087412;28;20275;-64
2022/09/11 02:33:34;;;;;;;7.93;4.70;;;;;;;19.17;100.00;101220.84;2085523;28;20450;-65
2022/09/11 02:34:37;;;;;;;7.70;4.80;;;;;;;19.37;100.00;101238.72;2087390;28;20850;-65
2022/09/11 02:35:44;;;;;;;8.80;5.00;;;;;;;19.34;100.00;101234.03;2087783;28;20418;-65
2022/09/11 02:36:59;;;;;;;5.67;4.90;;;;;;;19.38;100.00;101242.28;2087570;28;20534;-65
2022/09/11 02:38:32;;;;;;;8.13;4.83;;;;;;;19.40;100.00;101236.97;2085777;28;20425;-64
2022/09/11 02:39:55;;;;;;;7.77;4.70;;;;;;;19.39;100.00;101238.25;2086823;28;20449;-64
2022/09/11 02:41:01;;;;;;;6.23;4.90;;;;;;;19.33;100.00;101238.09;2084023;28;20438;-64
2022/09/11 02:42:39;;;;;;;8.67;4.80;;;;;;;19.32;100.00;101233.75;2087271;28;20438;-64
2022/09/11 02:43:45;;;;;;;6.30;4.70;;;;;;;19.38;100.00;101245.88;2087747;28;20403;-64
2022/09/11 02:45:11;;;;;;;6.53;4.57;;;;;;;19.36;100.00;101239.97;2087672;28;20831;-64
2022/09/11 02:46:17;;;;;;;6.17;4.80;;;;;;;19.40;100.00;101232.13;2086200;28;20797;-65
2022/09/11 02:47:52;;;;;;;5.23;4.73;;;;;;;19.30;100.00;101227.81;2086923;28;20433;-65
2022/09/11 02:49:05;;;;;;;5.97;4.93;;;;;;;19.40;100.00;101236.97;2087197;28;20957;-65
2022/09/11 02:50:21;;;;;;;7.33;4.60;;;;;;;19.40;100.00;101237.75;2087003;28;20515;-65
2022/09/11 02:51:29;;;;;;;5.00;4.50;;;;;;;19.43;100.00;101230.38;2087326;28;20454;-65
2022/09/11 02:53:01;;;;;;;12.57;5.00;;;;;;;19.40;100.00;101234.16;2086774;28;20431;-65
2022/09/11 02:54:25;;;;;;;8.47;4.93;;;;;;;19.35;100.00;101227.16;2087550;28;21045;-65
2022/09/11 02:55:34;;;;;;;5.83;4.83;;;;;;;19.32;100.00;101232.97;2087149;28;20427;-65
2022/09/11 02:56:45;;;;;;;7.03;4.63;;;;;;;19.33;100.00;101240.91;2086584;28;20458;-65
2022/09/11 02:58:12;;;;;;;6.57;5.00;;;;;;;19.34;100.00;101247.31;2086813;28;20426;-65
2022/09/11 02:59:20;;;;;;;7.93;4.93;;;;;;;19.38;100.00;101247.91;2078274;28;20451;-65
2022/09/11 03:00:21;;;;;;;6.47;5.40;;;;;;;19.38;100.00;101240.25;2087084;28;20438;-65
2022/09/11 03:01:23;;;;;;;6.07;5.03;;;;;;;19.31;100.00;101237.03;2087278;28;20954;-64
2022/09/11 03:02:24;;;;;;;8.40;5.53;;;;;;;19.25;100.00;101250.94;2087113;28;20267;-64
2022/09/11 03:03:24;;;;;;;7.97;5.17;;;;;;;19.27;100.00;101256.09;2086544;28;20976;-64
2022/09/11 03:04:25;;;;;;;7.43;5.07;;;;;;;19.32;100.00;101244.19;2087623;28;20905;-64
2022/09/11 03:05:27;;;;;;;7.93;4.80;;;;;;;19.29;100.00;101245.94;2087250;28;20200;-64
2022/09/11 03:06:28;;;;;;;5.93;4.77;;;;;;;18.69;100.00;101151.81;2086505;28;20176;-64
2022/09/11 03:07:28;;;;;;;8.30;4.80;;;;;;;19.33;100.00;101240.13;2086904;28;20662;-64
2022/09/11 03:08:31;;;;;;;7.73;4.97;;;;;;;19.33;100.00;101249.34;2086849;28;20195;-65
2022/09/11 03:09:33;;;;;;;7.40;4.80;;;;;;;19.32;100.00;101241.38;2087128;28;20183;-64
2022/09/11 03:10:34;;;;;;;7.83;5.30;;;;;;;19.24;100.00;101224.09;2087314;28;20445;-65
2022/09/11 03:11:34;;;;;;;5.20;4.70;;;;;;;19.35;100.00;101244.00;2086884;28;20438;-64
2022/09/11 03:12:35;;;;;;;7.27;4.93;;;;;;;19.33;100.00;101245.75;2086483;28;20217;-64
2022/09/11 03:13:36;;;;;;;7.30;5.23;;;;;;;18.80;100.00;101168.91;2087500;28;20173;-64
2022/09/11 03:14:37;;;;;;;6.57;4.70;;;;;;;19.30;100.00;101250.28;2087224;28;20187;-65
2022/09/11 03:15:37;;;;;;;7.47;5.10;;;;;;;19.32;100.00;101247.78;2088372;28;20450;-65
2022/09/11 03:16:39;;;;;;;6.67;5.23;;;;;;;19.00;100.00;101209.25;2087408;28;20326;-65
2022/09/11 03:17:40;;;;;;;6.97;5.37;;;;;;;19.28;100.00;101258.44;2088782;28;20563;-65
2022/09/11 03:18:40;;;;;;;6.80;5.00;;;;;;;19.14;100.00;101231.00;2088277;28;20445;-64
2022/09/11 03:19:41;;;;;;;6.33;5.17;;;;;;;19.29;100.00;101262.03;2088472;28;20188;-64
2022/09/11 03:20:46;;;;;;;6.83;5.47;;;;;;;19.31;100.00;101254.69;2089088;28;20597;-64
2022/09/11 03:21:46;;;;;;;8.03;5.20;;;;;;;19.36;100.00;101258.84;2088754;28;20176;-65
2022/09/11 03:22:47;;;;;;;5.87;4.97;;;;;;;19.37;100.00;101260.41;2089076;28;20914;-64
2022/09/11 03:23:47;;;;;;;5.47;4.70;;;;;;;19.37;100.00;101255.56;2088726;28;20202;-64
2022/09/11 03:24:47;;;;;;;8.77;5.03;;;;;;;19.34;100.00;101253.72;2088678;28;20548;-65
2022/09/11 03:25:49;;;;;;;6.00;4.87;;;;;;;18.97;100.00;101203.78;2088222;28;20222;-65
2022/09/11 03:26:49;;;;;;;5.30;4.60;;;;;;;19.41;100.00;101258.19;2088813;28;20680;-65
2022/09/11 03:27:50;;;;;;;7.30;5.20;;;;;;;19.40;100.00;101262.28;2088160;28;20549;-65
2022/09/11 03:28:52;;;;;;;5.87;4.83;;;;;;;19.34;100.00;101264.19;2088113;28;20183;-65
2022/09/11 03:29:52;;;;;;;8.13;5.13;;;;;;;19.33;100.00;101260.59;2088641;28;20270;-65
2022/09/11 03:30:54;;;;;;;7.83;5.40;;;;;;;19.27;100.00;101261.72;2089552;28;20931;-65
2022/09/11 03:31:56;;;;;;;6.43;4.93;;;;;;;19.23;100.00;101261.09;2088292;28;20188;-65
2022/09/11 03:32:57;;;;;;;7.77;5.40;;;;;;;19.23;100.00;101264.69;2088736;28;20480;-65
2022/09/11 03:33:57;;;;;;;6.67;5.23;;;;;;;19.21;100.00;101260.78;2087994;28;20441;-65
2022/09/11 03:35:00;;;;;;;6.60;5.30;;;;;;;19.26;100.00;101260.94;2088717;28;20450;-65
2022/09/11 03:36:00;;;;;;;7.87;5.33;;;;;;;19.26;100.00;101252.53;2087679;28;20204;-65
2022/09/11 03:37:01;;;;;;;6.53;5.10;;;;;;;18.31;100.00;101101.16;2089404;28;20461;-65
2022/09/11 03:38:01;;;;;;;5.47;4.80;;;;;;;19.31;100.00;101249.06;2088481;28;20207;-65
2022/09/11 03:39:02;;;;;;;6.37;5.37;;;;;;;19.15;100.00;101232.56;2088559;28;20665;-64
2022/09/11 03:40:03;;;;;;;7.87;5.03;;;;;;;18.61;100.00;101151.38;2089172;28;20189;-64
2022/09/11 03:41:04;;;;;;;5.60;5.00;;;;;;;19.24;100.00;101249.41;2088637;28;20184;-64
2022/09/11 03:42:05;;;;;;;5.50;5.00;;;;;;;19.32;100.00;101259.03;2088295;28;20188;-64
2022/09/11 03:43:05;;;;;;;7.37;5.10;;;;;;;19.30;100.00;101257.97;2087423;28;20484;-64
2022/09/11 03:44:06;;;;;;;7.90;5.13;;;;;;;19.30;100.00;101249.53;2087946;28;20188;-64
2022/09/11 03:45:07;;;;;;;5.43;4.90;;;;;;;19.29;100.00;101256.41;2088188;28;20234;-64
2022/09/11 03:46:08;;;;;;;5.37;4.87;;;;;;;19.32;100.00;101264.66;2087614;28;20428;-64
2022/09/11 03:47:08;;;;;;;9.20;5.00;;;;;;;19.33;100.00;101257.78;2088426;28;20508;-64
2022/09/11 03:48:09;;;;;;;6.57;5.10;;;;;;;19.29;100.00;101250.78;2088978;28;20184;-65
2022/09/11 03:49:10;;;;;;;8.83;5.40;;;;;;;19.36;100.00;101258.84;2088257;28;20195;-65
2022/09/11 03:50:11;;;;;;;6.90;5.20;;;;;;;19.37;100.00;101264.00;2088406;28;20551;-65
2022/09/11 03:51:13;;;;;;;8.70;5.23;;;;;;;19.30;100.00;101261.53;2088694;28;20577;-64
2022/09/11 03:52:14;;;;;;;7.53;5.40;;;;;;;19.31;100.00;101270.75;2087728;28;20446;-65
2022/09/11 03:53:15;;;;;;;7.50;5.67;;;;;;;19.27;100.00;101258.91;2087744;28;20480;-65
2022/09/11 03:54:16;;;;;;;5.53;5.03;;;;;;;19.33;100.00;101269.03;2088390;28;20188;-65
2022/09/11 03:55:17;;;;;;;5.30;4.80;;;;;;;19.36;100.00;101270.09;2087974;28;20498;-64
2022/09/11 03:56:18;;;;;;;6.73;4.90;;;;;;;19.21;100.00;101244.72;2087939;28;20200;-64
2022/09/11 03:57:18;;;;;;;5.50;5.00;;;;;;;19.40;100.00;101265.84;2089095;28;20673;-64
2022/09/11 03:58:19;;;;;;;6.30;5.30;;;;;;;19.41;100.00;101275.84;2088242;28;20191;-65
2022/09/11 03:59:20;;;;;;;7.57;5.00;;;;;;;19.43;100.00;101272.53;2088281;28;20203;-65
2022/09/11 04:00:21;;;;;;;7.97;5.30;;;;;;;19.37;100.00;101271.66;2087916;28;20188;-65
2022/09/11 04:01:22;;;;;;;6.90;4.70;;;;;;;18.74;100.00;101180.03;2088736;28;20427;-64
2022/09/11 04:02:22;;;;;;;8.77;5.20;;;;;;;19.30;100.00;101269.19;2088441;28;20573;-64
2022/09/11 04:03:23;;;;;;;5.37;4.87;;;;;;;19.35;100.00;101269.31;2087910;28;20453;-64
2022/09/11 04:04:23;;;;;;;5.97;4.63;;;;;;;19.41;100.00;101272.25;2088004;28;20275;-64
2022/09/11 04:05:24;;;;;;;7.03;5.07;;;;;;;18.62;100.00;101157.78;2089293;28;20176;-64
2022/09/11 04:06:24;;;;;;;5.37;4.87;;;;;;;19.37;100.00;101272.44;2087478;28;20372;-64
2022/09/11 04:07:25;;;;;;;8.43;5.40;;;;;;;19.34;100.00;101279.00;2088008;28;20568;-64
2022/09/11 04:08:25;;;;;;;9.00;5.23;;;;;;;19.29;100.00;101268.41;2088183;28;20192;-64
2022/09/11 04:09:26;;;;;;;8.43;5.70;;;;;;;19.24;100.00;101271.88;2088186;28;20556;-64
2022/09/11 04:10:27;;;;;;;6.33;5.57;;;;;;;18.82;100.00;101209.31;2088187;28;20240;-64
2022/09/11 04:11:27;;;;;;;7.13;5.57;;;;;;;18.77;100.00;101209.19;2088458;28;20215;-65
2022/09/11 04:12:28;;;;;;;9.80;5.87;;;;;;;19.20;100.00;101276.09;2088333;28;20652;-64
2022/09/11 04:13:30;;;;;;;6.60;5.90;;;;;;;19.11;100.00;101276.13;2088356;28;20206;-64
2022/09/11 04:14:31;;;;;;;9.83;5.87;;;;;;;19.11;100.00;101285.34;2088347;28;20509;-64
2022/09/11 04:15:32;;;;;;;8.20;5.93;;;;;;;19.10;100.00;101280.19;2088057;28;21003;-64
2022/09/11 04:16:32;;;;;;;7.43;6.13;;;;;;;19.09;100.00;101287.06;2087155;28;20727;-65
2022/09/11 04:17:33;;;;;;;7.00;6.13;;;;;;;19.05;100.00;101278.81;2088690;28;20187;-65
2022/09/11 04:18:36;;;;;;;7.23;5.87;;;;;;;18.90;100.00;101258.28;2088330;28;20186;-65
2022/09/11 04:19:36;;;;;;;9.17;6.50;;;;;;;19.11;100.00;101287.38;2087548;28;20222;-65
2022/09/11 04:20:37;;;;;;;7.80;6.17;;;;;;;19.15;100.00;101285.97;2088797;28;20422;-65
2022/09/11 04:21:38;;;;;;;8.07;6.07;;;;;;;19.18;100.00;101287.03;2088240;28;20671;-64
2022/09/11 04:22:39;;;;;;;6.37;5.77;;;;;;;19.25;100.00;101289.53;2088315;28;20816;-64
2022/09/11 04:23:40;;;;;;;7.03;5.23;;;;;;;19.14;100.00;101269.56;2088199;28;20192;-65
2022/09/11 04:24:41;;;;;;;8.10;5.93;;;;;;;19.17;100.00;101277.81;2087646;28;20462;-64
2022/09/11 04:25:41;;;;;;;8.80;5.90;;;;;;;19.20;100.00;101288.13;2087964;28;20449;-64
2022/09/11 04:26:42;;;;;;;9.80;5.90;;;;;;;19.17;100.00;101286.25;2087348;28;20199;-64
2022/09/11 04:27:42;;;;;;;6.23;5.60;;;;;;;19.19;100.00;101288.59;2087723;28;20193;-64
2022/09/11 04:28:43;;;;;;;6.33;5.73;;;;;;;18.86;100.00;101231.59;2088215;28;20656;-64
2022/09/11 04:29:45;;;;;;;12.00;6.00;;;;;;;19.23;100.00;101283.59;2087989;28;20185;-64
2022/09/11 04:30:45;;;;;;;6.87;5.47;;;;;;;19.19;100.00;101294.97;2088259;28;20199;-64
2022/09/11 04:31:45;;;;;;;9.30;5.60;;;;;;;19.21;100.00;101291.69;2088869;28;20427;-64
2022/09/11 04:32:46;;;;;;;10.93;5.40;;;;;;;19.25;100.00;101292.34;2087760;28;20536;-64
2022/09/11 04:33:47;;;;;;;7.37;5.70;;;;;;;19.21;100.00;101288.88;2088175;28;20182;-64
2022/09/11 04:34:48;;;;;;;7.83;5.60;;;;;;;19.32;100.00;101295.56;2087673;28;20188;-64
2022/09/11 04:35:48;;;;;;;6.30;5.50;;;;;;;19.38;100.00;101299.28;2087870;28;20474;-64
2022/09/11 04:36:49;;;;;;;7.33;5.90;;;;;;;19.43;100.00;101295.81;2088235;28;20197;-64
2022/09/11 04:37:49;;;;;;;6.20;5.60;;;;;;;19.47;100.00;101304.88;2087073;28;20191;-64
2022/09/11 04:38:54;;;;;;;6.17;5.10;;;;;;;19.50;100.00;101295.47;2087457;28;20241;-64
2022/09/11 04:39:55;;;;;;;10.07;5.57;;;;;;;19.60;100.00;101299.00;2088086;28;20706;-64
2022/09/11 04:40:59;;;;;;;8.30;5.47;;;;;;;19.61;100.00;101294.94;2088867;28;20866;-64
2022/09/11 04:42:01;;;;;;;7.93;5.73;;;;;;;19.58;100.00;101284.63;2088004;28;20222;-64
2022/09/11 04:43:01;;;;;;;7.40;5.00;;;;;;;19.69;100.00;101291.28;2087623;28;21012;-64
2022/09/11 04:44:02;;;;;;;7.97;5.03;;;;;;;19.65;100.00;101281.47;2087884;28;20804;-64
2022/09/11 04:45:03;;;;;;;7.13;5.30;;;;;;;19.52;100.00;101261.25;2087862;28;20188;-64
2022/09/11 04:46:15;;;;;;;7.53;5.37;;;;;;;19.82;100.00;101293.84;2087771;28;20427;-65
2022/09/11 04:47:15;;;;;;;8.87;5.13;;;;;;;19.77;100.00;101275.63;2087575;28;20446;-65
2022/09/11 04:48:16;;;;;;;7.90;4.80;;;;;;;19.90;100.00;101287.38;2087705;28;20647;-65
2022/09/11 04:49:16;;;;;;;6.80;5.40;;;;;;;19.92;100.00;101284.88;2088097;28;20183;-64
2022/09/11 04:50:18;;;;;;;6.90;4.73;;;;;;;19.98;100.00;101282.16;2087733;28;20704;-65
2022/09/11 04:51:33;;;;;;;8.00;5.40;;;;;;;19.31;100.00;101164.75;2088853;28;20661;-65
2022/09/11 04:52:34;;;;;;;6.80;4.70;;;;;;;20.10;100.00;101279.13;2086915;28;20418;-65
2022/09/11 04:53:36;;;;;;;9.60;4.73;;;;;;;19.59;100.00;101196.25;2088818;28;20676;-64
2022/09/11 04:54:37;;;;;;;6.33;4.90;;;;;;;20.17;100.00;101284.38;2088291;28;20274;-64
2022/09/11 04:55:37;;;;;;;5.50;4.70;;;;;;;19.61;100.00;101176.84;2087795;28;20454;-65
2022/09/11 04:56:38;;;;;;;8.60;5.23;;;;;;;20.28;100.00;101278.19;2087332;28;20216;-65
2022/09/11 04:57:38;;;;;;;5.30;4.80;;;;;;;20.18;100.00;101259.81;2087303;28;20191;-64
2022/09/11 04:58:40;;;;;;;6.57;5.07;;;;;;;20.22;100.00;101249.91;2087896;28;20196;-64
2022/09/11 04:59:41;;;;;;;7.63;5.00;;;;;;;20.38;100.00;101274.03;2087917;28;20181;-64
2022/09/11 05:00:41;;;;;;;8.17;4.97;;;;;;;20.42;100.00;101277.44;2087428;28;21016;-64
2022/09/11 05:01:43;;;;;;;5.00;4.37;;;;;;;20.39;100.00;101269.94;2088567;28;20172;-64
2022/09/11 05:02:43;;;;;;;5.67;4.20;;;;;;;20.48;100.00;101273.47;2087544;28;20653;-64
2022/09/11 05:03:43;;;;;;;6.27;4.70;;;;;;;20.54;100.00;101277.16;2087753;28;20913;-64